sensor_id;sensor_type;location;lat;lon;timestamp;P1;durP1;ratioP1;P2;durP2;ratioP2
1062;SDS011;520;50.932;6.962;2024-03-22T00:01:57;20.60;;;13.43;;
1062;SDS011;520;50.932;6.962;2024-03-22T00:04:53;19.77;;;13.57;;
1062;SDS011;520;50.932;6.962;2024-03-22T00:07:22;20.87;;;13.50;;
1062;SDS011;520;50.932;6.962;2024-03-22T00:09:53;20.37;;;13.27;;
1062;SDS011;520;50.932;6.962;2024-03-22T00:15:42;18.93;;;12.53;;
1062;SDS011;520;50.932;6.962;2024-03-22T00:18:13;23.93;;;14.40;;
1062;SDS011;520;50.932;6.962;2024-03-22T00:21:10;18.30;;;12.70;;
1062;SDS011;520;50.932;6.962;2024-03-22T00:23:59;20.20;;;13.20;;
1062;SDS011;520;50.932;6.962;2024-03-22T00:26:36;18.33;;;12.00;;
1062;SDS011;520;50.932;6.962;2024-03-22T00:29:09;22.43;;;13.67;;
1062;SDS011;520;50.932;6.962;2024-03-22T00:34:43;18.00;;;12.60;;
1062;SDS011;520;50.932;6.962;2024-03-22T00:37:14;19.73;;;12.77;;
1062;SDS011;520;50.932;6.962;2024-03-22T00:39:53;17.77;;;11.17;;
1062;SDS011;520;50.932;6.962;2024-03-22T00:42:30;20.30;;;13.60;;
1062;SDS011;520;50.932;6.962;2024-03-22T00:44:58;19.10;;;12.83;;
1062;SDS011;520;50.932;6.962;2024-03-22T00:47:36;18.57;;;12.20;;
1062;SDS011;520;50.932;6.962;2024-03-22T00:50:15;19.97;;;13.60;;
1062;SDS011;520;50.932;6.962;2024-03-22T00:53:03;18.17;;;12.67;;
1062;SDS011;520;50.932;6.962;2024-03-22T00:55:51;22.10;;;13.60;;
1062;SDS011;520;50.932;6.962;2024-03-22T00:58:54;19.50;;;12.80;;
1062;SDS011;520;50.932;6.962;2024-03-22T01:01:30;19.40;;;12.30;;
1062;SDS011;520;50.932;6.962;2024-03-22T01:04:05;17.70;;;11.83;;
1062;SDS011;520;50.932;6.962;2024-03-22T01:06:40;18.30;;;11.90;;
1062;SDS011;520;50.932;6.962;2024-03-22T01:09:18;18.80;;;12.67;;
1062;SDS011;520;50.932;6.962;2024-03-22T01:11:55;18.37;;;11.50;;
1062;SDS011;520;50.932;6.962;2024-03-22T01:14:34;17.10;;;12.37;;
1062;SDS011;520;50.932;6.962;2024-03-22T01:17:06;18.60;;;11.60;;
1062;SDS011;520;50.932;6.962;2024-03-22T01:19:47;18.10;;;12.80;;
1062;SDS011;520;50.932;6.962;2024-03-22T01:22:19;20.67;;;13.17;;
1062;SDS011;520;50.932;6.962;2024-03-22T01:25:07;17.03;;;11.67;;
1062;SDS011;520;50.932;6.962;2024-03-22T01:27:42;15.90;;;11.63;;
1062;SDS011;520;50.932;6.962;2024-03-22T01:30:33;19.77;;;12.67;;
1062;SDS011;520;50.932;6.962;2024-03-22T01:35:46;17.33;;;12.90;;
1062;SDS011;520;50.932;6.962;2024-03-22T01:38:31;20.43;;;13.10;;
1062;SDS011;520;50.932;6.962;2024-03-22T01:41:00;18.00;;;11.93;;
1062;SDS011;520;50.932;6.962;2024-03-22T01:43:38;18.30;;;11.57;;
1062;SDS011;520;50.932;6.962;2024-03-22T01:46:52;16.67;;;11.77;;
1062;SDS011;520;50.932;6.962;2024-03-22T01:49:26;15.83;;;11.33;;
1062;SDS011;520;50.932;6.962;2024-03-22T01:52:05;15.70;;;11.73;;
1062;SDS011;520;50.932;6.962;2024-03-22T02:00:32;20.17;;;10.10;;
1062;SDS011;520;50.932;6.962;2024-03-22T02:06:39;16.07;;;10.87;;
1062;SDS011;520;50.932;6.962;2024-03-22T02:09:10;16.27;;;10.70;;
1062;SDS011;520;50.932;6.962;2024-03-22T02:11:43;16.70;;;11.50;;
1062;SDS011;520;50.932;6.962;2024-03-22T02:17:37;14.43;;;10.50;;
1062;SDS011;520;50.932;6.962;2024-03-22T02:20:13;13.53;;;10.07;;
1062;SDS011;520;50.932;6.962;2024-03-22T02:22:45;15.37;;;10.93;;
1062;SDS011;520;50.932;6.962;2024-03-22T02:25:20;13.90;;;10.37;;
1062;SDS011;520;50.932;6.962;2024-03-22T02:27:50;15.33;;;11.03;;
1062;SDS011;520;50.932;6.962;2024-03-22T02:30:30;16.03;;;10.87;;
1062;SDS011;520;50.932;6.962;2024-03-22T02:32:59;16.23;;;10.90;;
1062;SDS011;520;50.932;6.962;2024-03-22T02:35:26;16.83;;;12.07;;
1062;SDS011;520;50.932;6.962;2024-03-22T02:38:01;16.07;;;10.13;;
1062;SDS011;520;50.932;6.962;2024-03-22T02:40:33;13.63;;;9.93;;
1062;SDS011;520;50.932;6.962;2024-03-22T02:45:52;17.87;;;11.63;;
1062;SDS011;520;50.932;6.962;2024-03-22T02:48:21;15.90;;;11.60;;
1062;SDS011;520;50.932;6.962;2024-03-22T02:51:23;20.07;;;10.37;;
1062;SDS011;520;50.932;6.962;2024-03-22T02:53:56;14.00;;;9.77;;
1062;SDS011;520;50.932;6.962;2024-03-22T02:56:43;16.03;;;11.27;;
1062;SDS011;520;50.932;6.962;2024-03-22T02:59:28;14.97;;;10.40;;
1062;SDS011;520;50.932;6.962;2024-03-22T03:01:57;17.10;;;11.30;;
1062;SDS011;520;50.932;6.962;2024-03-22T03:04:29;14.00;;;10.00;;
1062;SDS011;520;50.932;6.962;2024-03-22T03:06:56;13.60;;;10.33;;
1062;SDS011;520;50.932;6.962;2024-03-22T03:09:28;13.43;;;9.73;;
1062;SDS011;520;50.932;6.962;2024-03-22T03:11:58;16.53;;;9.83;;
1062;SDS011;520;50.932;6.962;2024-03-22T03:14:27;14.10;;;9.10;;
1062;SDS011;520;50.932;6.962;2024-03-22T03:16:56;12.87;;;9.60;;
1062;SDS011;520;50.932;6.962;2024-03-22T03:22:11;12.70;;;10.07;;
1062;SDS011;520;50.932;6.962;2024-03-22T03:24:38;15.53;;;10.07;;
1062;SDS011;520;50.932;6.962;2024-03-22T03:27:07;14.37;;;10.50;;
1062;SDS011;520;50.932;6.962;2024-03-22T03:29:37;16.07;;;10.07;;
1062;SDS011;520;50.932;6.962;2024-03-22T03:32:12;18.23;;;11.57;;
1062;SDS011;520;50.932;6.962;2024-03-22T03:34:38;14.37;;;11.20;;
1062;SDS011;520;50.932;6.962;2024-03-22T03:37:17;12.90;;;10.40;;
1062;SDS011;520;50.932;6.962;2024-03-22T03:39:50;15.10;;;11.00;;
1062;SDS011;520;50.932;6.962;2024-03-22T03:42:37;15.43;;;10.20;;
1062;SDS011;520;50.932;6.962;2024-03-22T03:45:04;13.00;;;9.60;;
1062;SDS011;520;50.932;6.962;2024-03-22T03:47:33;14.20;;;10.57;;
1062;SDS011;520;50.932;6.962;2024-03-22T03:50:00;15.00;;;9.17;;
1062;SDS011;520;50.932;6.962;2024-03-22T03:52:36;15.90;;;9.67;;
1062;SDS011;520;50.932;6.962;2024-03-22T03:55:06;14.90;;;11.40;;
1062;SDS011;520;50.932;6.962;2024-03-22T03:57:41;18.00;;;10.77;;
1062;SDS011;520;50.932;6.962;2024-03-22T04:00:38;15.27;;;10.47;;
1062;SDS011;520;50.932;6.962;2024-03-22T04:03:11;17.53;;;11.07;;
1062;SDS011;520;50.932;6.962;2024-03-22T04:05:44;14.80;;;10.33;;
1062;SDS011;520;50.932;6.962;2024-03-22T04:08:10;14.67;;;10.10;;
1062;SDS011;520;50.932;6.962;2024-03-22T04:10:53;14.10;;;10.27;;
1062;SDS011;520;50.932;6.962;2024-03-22T04:13:40;17.70;;;10.83;;
1062;SDS011;520;50.932;6.962;2024-03-22T04:16:10;14.70;;;10.57;;
1062;SDS011;520;50.932;6.962;2024-03-22T04:18:52;18.13;;;10.80;;
1062;SDS011;520;50.932;6.962;2024-03-22T04:21:28;14.03;;;10.00;;
1062;SDS011;520;50.932;6.962;2024-03-22T04:24:21;15.30;;;10.63;;
1062;SDS011;520;50.932;6.962;2024-03-22T04:27:14;15.80;;;11.13;;
1062;SDS011;520;50.932;6.962;2024-03-22T04:29:52;13.27;;;9.80;;
1062;SDS011;520;50.932;6.962;2024-03-22T04:32:21;16.63;;;10.53;;
1062;SDS011;520;50.932;6.962;2024-03-22T04:34:54;14.30;;;9.93;;
1062;SDS011;520;50.932;6.962;2024-03-22T04:40:25;13.73;;;10.30;;
1062;SDS011;520;50.932;6.962;2024-03-22T04:43:37;14.50;;;10.40;;
1062;SDS011;520;50.932;6.962;2024-03-22T04:46:19;15.00;;;9.80;;
1062;SDS011;520;50.932;6.962;2024-03-22T04:49:04;12.60;;;10.00;;
1062;SDS011;520;50.932;6.962;2024-03-22T04:51:36;12.53;;;9.90;;
1062;SDS011;520;50.932;6.962;2024-03-22T04:54:14;15.53;;;9.40;;
1062;SDS011;520;50.932;6.962;2024-03-22T04:56:46;13.83;;;9.67;;
1062;SDS011;520;50.932;6.962;2024-03-22T04:59:55;13.67;;;9.20;;
1062;SDS011;520;50.932;6.962;2024-03-22T05:02:27;13.53;;;8.50;;
1062;SDS011;520;50.932;6.962;2024-03-22T05:05:05;10.77;;;8.83;;
1062;SDS011;520;50.932;6.962;2024-03-22T05:07:34;13.53;;;9.07;;
1062;SDS011;520;50.932;6.962;2024-03-22T05:10:12;11.83;;;8.80;;
1062;SDS011;520;50.932;6.962;2024-03-22T05:12:47;10.63;;;8.60;;
1062;SDS011;520;50.932;6.962;2024-03-22T05:15:31;11.23;;;8.40;;
1062;SDS011;520;50.932;6.962;2024-03-22T05:18:21;12.27;;;8.73;;
1062;SDS011;520;50.932;6.962;2024-03-22T05:20:59;16.43;;;8.67;;
1062;SDS011;520;50.932;6.962;2024-03-22T05:23:39;13.40;;;8.90;;
1062;SDS011;520;50.932;6.962;2024-03-22T05:26:11;10.53;;;8.70;;
1062;SDS011;520;50.932;6.962;2024-03-22T05:28:49;12.23;;;9.10;;
1062;SDS011;520;50.932;6.962;2024-03-22T05:31:18;12.30;;;8.23;;
1062;SDS011;520;50.932;6.962;2024-03-22T05:33:54;12.53;;;9.70;;
1062;SDS011;520;50.932;6.962;2024-03-22T05:36:33;11.73;;;9.63;;
1062;SDS011;520;50.932;6.962;2024-03-22T05:39:02;13.30;;;9.30;;
1062;SDS011;520;50.932;6.962;2024-03-22T05:41:38;11.60;;;9.10;;
1062;SDS011;520;50.932;6.962;2024-03-22T05:44:12;11.70;;;7.93;;
1062;SDS011;520;50.932;6.962;2024-03-22T05:49:43;11.97;;;8.33;;
1062;SDS011;520;50.932;6.962;2024-03-22T05:52:15;14.03;;;9.03;;
1062;SDS011;520;50.932;6.962;2024-03-22T05:54:45;13.33;;;9.03;;
1062;SDS011;520;50.932;6.962;2024-03-22T05:57:16;11.20;;;8.57;;
1062;SDS011;520;50.932;6.962;2024-03-22T06:00:07;15.93;;;8.50;;
1062;SDS011;520;50.932;6.962;2024-03-22T06:02:47;11.63;;;8.47;;
1062;SDS011;520;50.932;6.962;2024-03-22T06:05:25;11.97;;;8.23;;
1062;SDS011;520;50.932;6.962;2024-03-22T06:08:01;15.10;;;8.73;;
1062;SDS011;520;50.932;6.962;2024-03-22T06:10:46;15.93;;;10.30;;
1062;SDS011;520;50.932;6.962;2024-03-22T06:13:18;12.70;;;9.40;;
1062;SDS011;520;50.932;6.962;2024-03-22T06:15:50;12.70;;;9.60;;
1062;SDS011;520;50.932;6.962;2024-03-22T06:21:14;11.80;;;8.87;;
1062;SDS011;520;50.932;6.962;2024-03-22T06:24:09;12.77;;;8.60;;
1062;SDS011;520;50.932;6.962;2024-03-22T06:26:38;13.23;;;9.03;;
1062;SDS011;520;50.932;6.962;2024-03-22T06:29:13;12.27;;;8.70;;
1062;SDS011;520;50.932;6.962;2024-03-22T06:31:48;18.27;;;10.23;;
1062;SDS011;520;50.932;6.962;2024-03-22T06:34:22;13.50;;;9.83;;
1062;SDS011;520;50.932;6.962;2024-03-22T06:36:57;17.37;;;10.60;;
1062;SDS011;520;50.932;6.962;2024-03-22T06:39:27;12.83;;;8.37;;
1062;SDS011;520;50.932;6.962;2024-03-22T06:41:54;15.00;;;9.60;;
1062;SDS011;520;50.932;6.962;2024-03-22T06:47:23;14.93;;;9.70;;
1062;SDS011;520;50.932;6.962;2024-03-22T06:49:56;13.53;;;9.80;;
1062;SDS011;520;50.932;6.962;2024-03-22T06:52:28;14.40;;;9.43;;
1062;SDS011;520;50.932;6.962;2024-03-22T06:55:01;16.40;;;10.50;;
1062;SDS011;520;50.932;6.962;2024-03-22T06:57:43;12.10;;;10.00;;
1062;SDS011;520;50.932;6.962;2024-03-22T07:00:15;13.87;;;10.53;;
1062;SDS011;520;50.932;6.962;2024-03-22T07:03:02;15.10;;;10.30;;
1062;SDS011;520;50.932;6.962;2024-03-22T07:05:40;15.80;;;9.73;;
1062;SDS011;520;50.932;6.962;2024-03-22T07:08:26;15.93;;;10.93;;
1062;SDS011;520;50.932;6.962;2024-03-22T07:10:56;15.00;;;9.97;;
1062;SDS011;520;50.932;6.962;2024-03-22T07:16:32;12.33;;;9.00;;
1062;SDS011;520;50.932;6.962;2024-03-22T07:19:13;12.20;;;8.53;;
1062;SDS011;520;50.932;6.962;2024-03-22T07:21:47;11.57;;;9.13;;
1062;SDS011;520;50.932;6.962;2024-03-22T07:24:20;13.23;;;9.37;;
1062;SDS011;520;50.932;6.962;2024-03-22T07:27:02;14.40;;;9.00;;
1062;SDS011;520;50.932;6.962;2024-03-22T07:30:07;12.10;;;9.33;;
1062;SDS011;520;50.932;6.962;2024-03-22T07:32:35;9.83;;;8.10;;
1062;SDS011;520;50.932;6.962;2024-03-22T07:35:22;10.70;;;9.40;;
1062;SDS011;520;50.932;6.962;2024-03-22T07:38:04;12.90;;;9.20;;
1062;SDS011;520;50.932;6.962;2024-03-22T07:40:30;13.37;;;9.53;;
1062;SDS011;520;50.932;6.962;2024-03-22T07:42:57;16.90;;;10.87;;
1062;SDS011;520;50.932;6.962;2024-03-22T07:45:37;11.97;;;9.93;;
1062;SDS011;520;50.932;6.962;2024-03-22T07:48:07;11.03;;;8.80;;
1062;SDS011;520;50.932;6.962;2024-03-22T07:50:33;12.57;;;9.87;;
1062;SDS011;520;50.932;6.962;2024-03-22T07:53:03;14.13;;;9.20;;
1062;SDS011;520;50.932;6.962;2024-03-22T07:55:35;16.33;;;9.53;;
1062;SDS011;520;50.932;6.962;2024-03-22T07:58:07;18.47;;;9.50;;
1062;SDS011;520;50.932;6.962;2024-03-22T08:01:06;12.77;;;10.77;;
1062;SDS011;520;50.932;6.962;2024-03-22T08:03:56;14.70;;;9.03;;
1062;SDS011;520;50.932;6.962;2024-03-22T08:09:50;13.93;;;10.13;;
1062;SDS011;520;50.932;6.962;2024-03-22T08:15:00;13.30;;;10.00;;
1062;SDS011;520;50.932;6.962;2024-03-22T08:17:30;13.93;;;10.03;;
1062;SDS011;520;50.932;6.962;2024-03-22T08:20:00;17.50;;;12.00;;
1062;SDS011;520;50.932;6.962;2024-03-22T08:22:33;18.33;;;12.43;;
1062;SDS011;520;50.932;6.962;2024-03-22T08:25:01;13.27;;;11.20;;
1062;SDS011;520;50.932;6.962;2024-03-22T08:27:37;13.60;;;9.63;;
1062;SDS011;520;50.932;6.962;2024-03-22T08:33:29;17.10;;;12.03;;
1062;SDS011;520;50.932;6.962;2024-03-22T08:36:04;20.13;;;11.27;;
1062;SDS011;520;50.932;6.962;2024-03-22T08:38:30;16.40;;;13.10;;
1062;SDS011;520;50.932;6.962;2024-03-22T08:41:04;12.47;;;11.07;;
1062;SDS011;520;50.932;6.962;2024-03-22T08:43:32;13.10;;;10.50;;
1062;SDS011;520;50.932;6.962;2024-03-22T08:46:03;15.50;;;11.50;;
1062;SDS011;520;50.932;6.962;2024-03-22T08:48:52;18.53;;;11.20;;
1062;SDS011;520;50.932;6.962;2024-03-22T08:51:34;18.70;;;11.50;;
1062;SDS011;520;50.932;6.962;2024-03-22T08:54:04;16.53;;;10.57;;
1062;SDS011;520;50.932;6.962;2024-03-22T08:56:39;14.20;;;10.50;;
1062;SDS011;520;50.932;6.962;2024-03-22T08:59:11;14.73;;;11.17;;
1062;SDS011;520;50.932;6.962;2024-03-22T09:01:53;14.50;;;11.30;;
1062;SDS011;520;50.932;6.962;2024-03-22T09:04:26;14.57;;;12.07;;
1062;SDS011;520;50.932;6.962;2024-03-22T09:07:20;17.07;;;11.30;;
1062;SDS011;520;50.932;6.962;2024-03-22T09:09:49;14.43;;;10.20;;
1062;SDS011;520;50.932;6.962;2024-03-22T09:12:35;11.57;;;8.97;;
1062;SDS011;520;50.932;6.962;2024-03-22T09:15:07;13.40;;;9.70;;
1062;SDS011;520;50.932;6.962;2024-03-22T09:17:37;9.20;;;8.23;;
1062;SDS011;520;50.932;6.962;2024-03-22T09:20:28;12.23;;;7.53;;
1062;SDS011;520;50.932;6.962;2024-03-22T09:23:04;9.23;;;6.87;;
1062;SDS011;520;50.932;6.962;2024-03-22T09:25:34;10.87;;;6.67;;
1062;SDS011;520;50.932;6.962;2024-03-22T09:28:04;8.00;;;6.20;;
1062;SDS011;520;50.932;6.962;2024-03-22T09:30:46;8.03;;;5.93;;
1062;SDS011;520;50.932;6.962;2024-03-22T09:33:23;5.90;;;5.20;;
1062;SDS011;520;50.932;6.962;2024-03-22T09:36:14;8.00;;;5.97;;
1062;SDS011;520;50.932;6.962;2024-03-22T09:38:51;7.13;;;5.03;;
1062;SDS011;520;50.932;6.962;2024-03-22T09:44:08;6.67;;;4.83;;
1062;SDS011;520;50.932;6.962;2024-03-22T09:46:40;7.53;;;5.40;;
1062;SDS011;520;50.932;6.962;2024-03-22T09:49:11;6.87;;;5.80;;
1062;SDS011;520;50.932;6.962;2024-03-22T09:51:42;6.57;;;5.37;;
1062;SDS011;520;50.932;6.962;2024-03-22T09:54:14;6.43;;;5.80;;
1062;SDS011;520;50.932;6.962;2024-03-22T09:56:40;6.80;;;5.63;;
1062;SDS011;520;50.932;6.962;2024-03-22T10:02:11;7.43;;;5.30;;
1062;SDS011;520;50.932;6.962;2024-03-22T10:04:57;7.50;;;5.67;;
1062;SDS011;520;50.932;6.962;2024-03-22T10:07:30;9.00;;;4.90;;
1062;SDS011;520;50.932;6.962;2024-03-22T10:09:57;7.37;;;5.60;;
1062;SDS011;520;50.932;6.962;2024-03-22T10:13:00;7.63;;;5.23;;
1062;SDS011;520;50.932;6.962;2024-03-22T10:15:27;7.70;;;5.90;;
1062;SDS011;520;50.932;6.962;2024-03-22T10:18:02;5.73;;;4.63;;
1062;SDS011;520;50.932;6.962;2024-03-22T10:20:30;5.37;;;4.60;;
1062;SDS011;520;50.932;6.962;2024-03-22T10:23:03;6.83;;;5.50;;
1062;SDS011;520;50.932;6.962;2024-03-22T10:25:32;9.10;;;5.80;;
1062;SDS011;520;50.932;6.962;2024-03-22T10:28:02;6.80;;;5.60;;
1062;SDS011;520;50.932;6.962;2024-03-22T10:30:43;7.13;;;5.70;;
1062;SDS011;520;50.932;6.962;2024-03-22T10:33:15;6.00;;;5.40;;
1062;SDS011;520;50.932;6.962;2024-03-22T10:35:47;7.40;;;5.60;;
1062;SDS011;520;50.932;6.962;2024-03-22T10:38:21;7.60;;;5.63;;
1062;SDS011;520;50.932;6.962;2024-03-22T10:40:48;7.63;;;5.93;;
1062;SDS011;520;50.932;6.962;2024-03-22T10:43:18;8.00;;;5.17;;
1062;SDS011;520;50.932;6.962;2024-03-22T10:45:50;10.50;;;5.77;;
1062;SDS011;520;50.932;6.962;2024-03-22T10:48:22;8.67;;;5.30;;
1062;SDS011;520;50.932;6.962;2024-03-22T10:50:59;7.40;;;5.70;;
1062;SDS011;520;50.932;6.962;2024-03-22T10:53:32;6.33;;;5.00;;
1062;SDS011;520;50.932;6.962;2024-03-22T10:56:05;8.03;;;5.73;;
1062;SDS011;520;50.932;6.962;2024-03-22T10:58:42;6.10;;;5.10;;
1062;SDS011;520;50.932;6.962;2024-03-22T11:01:31;8.83;;;5.70;;
1062;SDS011;520;50.932;6.962;2024-03-22T11:04:05;7.17;;;5.30;;
1062;SDS011;520;50.932;6.962;2024-03-22T11:10:11;9.47;;;6.60;;
1062;SDS011;520;50.932;6.962;2024-03-22T11:12:50;9.47;;;5.60;;
1062;SDS011;520;50.932;6.962;2024-03-22T11:15:31;9.03;;;6.53;;
1062;SDS011;520;50.932;6.962;2024-03-22T11:18:09;8.60;;;6.20;;
1062;SDS011;520;50.932;6.962;2024-03-22T11:20:47;9.80;;;7.10;;
1062;SDS011;520;50.932;6.962;2024-03-22T11:23:16;10.50;;;8.03;;
1062;SDS011;520;50.932;6.962;2024-03-22T11:25:51;9.90;;;6.70;;
1062;SDS011;520;50.932;6.962;2024-03-22T11:28:37;10.03;;;7.93;;
1062;SDS011;520;50.932;6.962;2024-03-22T11:31:07;12.03;;;6.80;;
1062;SDS011;520;50.932;6.962;2024-03-22T11:33:51;8.60;;;6.63;;
1062;SDS011;520;50.932;6.962;2024-03-22T11:36:35;8.83;;;6.70;;
1062;SDS011;520;50.932;6.962;2024-03-22T11:39:12;10.10;;;7.40;;
1062;SDS011;520;50.932;6.962;2024-03-22T11:41:39;8.03;;;7.00;;
1062;SDS011;520;50.932;6.962;2024-03-22T11:47:25;9.83;;;7.70;;
1062;SDS011;520;50.932;6.962;2024-03-22T11:52:30;9.37;;;6.63;;
1062;SDS011;520;50.932;6.962;2024-03-22T11:55:09;9.20;;;7.60;;
1062;SDS011;520;50.932;6.962;2024-03-22T11:57:49;10.40;;;7.30;;
1062;SDS011;520;50.932;6.962;2024-03-22T12:00:31;8.80;;;7.50;;
1062;SDS011;520;50.932;6.962;2024-03-22T12:03:07;10.80;;;7.77;;
1062;SDS011;520;50.932;6.962;2024-03-22T12:05:41;11.20;;;8.43;;
1062;SDS011;520;50.932;6.962;2024-03-22T12:08:13;9.80;;;7.97;;
1062;SDS011;520;50.932;6.962;2024-03-22T12:10:51;8.83;;;7.33;;
1062;SDS011;520;50.932;6.962;2024-03-22T12:13:25;7.90;;;7.10;;
1062;SDS011;520;50.932;6.962;2024-03-22T12:15:56;12.50;;;8.80;;
1062;SDS011;520;50.932;6.962;2024-03-22T12:18:31;9.53;;;7.80;;
1062;SDS011;520;50.932;6.962;2024-03-22T12:20:59;8.63;;;7.53;;
1062;SDS011;520;50.932;6.962;2024-03-22T12:23:37;9.27;;;8.07;;
1062;SDS011;520;50.932;6.962;2024-03-22T12:26:15;8.67;;;7.33;;
1062;SDS011;520;50.932;6.962;2024-03-22T12:28:44;9.40;;;7.90;;
1062;SDS011;520;50.932;6.962;2024-03-22T12:31:16;10.73;;;7.93;;
1062;SDS011;520;50.932;6.962;2024-03-22T12:34:10;9.13;;;7.97;;
1062;SDS011;520;50.932;6.962;2024-03-22T12:36:50;11.83;;;9.60;;
1062;SDS011;520;50.932;6.962;2024-03-22T12:39:40;12.90;;;9.40;;
1062;SDS011;520;50.932;6.962;2024-03-22T12:42:10;11.77;;;8.53;;
1062;SDS011;520;50.932;6.962;2024-03-22T12:48:40;9.87;;;8.30;;
1062;SDS011;520;50.932;6.962;2024-03-22T12:51:12;10.43;;;8.40;;
1062;SDS011;520;50.932;6.962;2024-03-22T12:53:43;10.73;;;7.13;;
1062;SDS011;520;50.932;6.962;2024-03-22T12:56:30;11.63;;;8.10;;
1062;SDS011;520;50.932;6.962;2024-03-22T12:59:00;9.70;;;8.43;;
1062;SDS011;520;50.932;6.962;2024-03-22T13:01:36;10.50;;;7.57;;
1062;SDS011;520;50.932;6.962;2024-03-22T13:09:59;10.23;;;8.97;;
1062;SDS011;520;50.932;6.962;2024-03-22T13:13:05;8.93;;;7.53;;
1062;SDS011;520;50.932;6.962;2024-03-22T13:15:37;10.47;;;6.37;;
1062;SDS011;520;50.932;6.962;2024-03-22T13:18:30;8.97;;;6.60;;
1062;SDS011;520;50.932;6.962;2024-03-22T13:20:57;7.23;;;6.50;;
1062;SDS011;520;50.932;6.962;2024-03-22T13:24:01;9.30;;;7.10;;
1062;SDS011;520;50.932;6.962;2024-03-22T13:27:09;7.87;;;6.17;;
1062;SDS011;520;50.932;6.962;2024-03-22T13:29:39;8.33;;;6.90;;
1062;SDS011;520;50.932;6.962;2024-03-22T13:32:09;8.57;;;7.67;;
1062;SDS011;520;50.932;6.962;2024-03-22T13:34:48;11.33;;;8.13;;
1062;SDS011;520;50.932;6.962;2024-03-22T13:37:23;14.20;;;7.93;;
1062;SDS011;520;50.932;6.962;2024-03-22T13:40:18;14.30;;;8.43;;
1062;SDS011;520;50.932;6.962;2024-03-22T13:42:47;11.60;;;7.70;;
1062;SDS011;520;50.932;6.962;2024-03-22T13:45:24;10.13;;;8.10;;
1062;SDS011;520;50.932;6.962;2024-03-22T13:50:48;11.87;;;8.20;;
1062;SDS011;520;50.932;6.962;2024-03-22T13:56:39;9.97;;;8.33;;
1062;SDS011;520;50.932;6.962;2024-03-22T13:59:12;10.97;;;8.73;;
1062;SDS011;520;50.932;6.962;2024-03-22T14:01:43;18.57;;;8.50;;
1062;SDS011;520;50.932;6.962;2024-03-22T14:04:18;10.17;;;8.40;;
1062;SDS011;520;50.932;6.962;2024-03-22T14:06:51;9.33;;;7.47;;
1062;SDS011;520;50.932;6.962;2024-03-22T14:09:28;14.83;;;9.20;;
1062;SDS011;520;50.932;6.962;2024-03-22T14:12:08;9.33;;;8.33;;
1062;SDS011;520;50.932;6.962;2024-03-22T14:14:38;8.80;;;7.87;;
1062;SDS011;520;50.932;6.962;2024-03-22T14:17:17;9.53;;;7.70;;
1062;SDS011;520;50.932;6.962;2024-03-22T14:19:45;10.07;;;9.00;;
1062;SDS011;520;50.932;6.962;2024-03-22T14:25:27;9.90;;;8.90;;
1062;SDS011;520;50.932;6.962;2024-03-22T14:28:02;12.20;;;8.77;;
1062;SDS011;520;50.932;6.962;2024-03-22T14:30:37;9.80;;;8.40;;
1062;SDS011;520;50.932;6.962;2024-03-22T14:33:32;11.23;;;8.40;;
1062;SDS011;520;50.932;6.962;2024-03-22T14:36:04;11.07;;;9.20;;
1062;SDS011;520;50.932;6.962;2024-03-22T14:38:54;10.17;;;8.67;;
1062;SDS011;520;50.932;6.962;2024-03-22T14:44:44;9.00;;;8.10;;
1062;SDS011;520;50.932;6.962;2024-03-22T14:50:00;9.97;;;8.10;;
1062;SDS011;520;50.932;6.962;2024-03-22T14:52:32;8.90;;;7.70;;
1062;SDS011;520;50.932;6.962;2024-03-22T14:55:21;11.47;;;8.77;;
1062;SDS011;520;50.932;6.962;2024-03-22T14:57:54;9.43;;;7.70;;
1062;SDS011;520;50.932;6.962;2024-03-22T15:00:35;11.10;;;8.73;;
1062;SDS011;520;50.932;6.962;2024-03-22T15:07:09;11.50;;;7.80;;
1062;SDS011;520;50.932;6.962;2024-03-22T15:09:50;9.67;;;7.73;;
1062;SDS011;520;50.932;6.962;2024-03-22T15:12:50;11.57;;;7.60;;
1062;SDS011;520;50.932;6.962;2024-03-22T15:15:38;10.87;;;8.90;;
1062;SDS011;520;50.932;6.962;2024-03-22T15:18:46;11.73;;;9.60;;
1062;SDS011;520;50.932;6.962;2024-03-22T15:21:22;10.03;;;8.60;;
1062;SDS011;520;50.932;6.962;2024-03-22T15:23:58;12.83;;;9.07;;
1062;SDS011;520;50.932;6.962;2024-03-22T15:26:27;10.47;;;8.50;;
1062;SDS011;520;50.932;6.962;2024-03-22T15:29:09;12.40;;;8.70;;
1062;SDS011;520;50.932;6.962;2024-03-22T15:31:41;13.63;;;9.80;;
1062;SDS011;520;50.932;6.962;2024-03-22T15:34:07;17.60;;;9.87;;
1062;SDS011;520;50.932;6.962;2024-03-22T15:36:42;15.00;;;9.40;;
1062;SDS011;520;50.932;6.962;2024-03-22T15:39:11;12.80;;;10.37;;
1062;SDS011;520;50.932;6.962;2024-03-22T15:41:45;13.03;;;10.00;;
1062;SDS011;520;50.932;6.962;2024-03-22T15:44:17;12.57;;;9.13;;
1062;SDS011;520;50.932;6.962;2024-03-22T15:46:52;14.33;;;10.90;;
1062;SDS011;520;50.932;6.962;2024-03-22T15:49:20;16.70;;;10.13;;
1062;SDS011;520;50.932;6.962;2024-03-22T15:52:01;13.13;;;8.97;;
1062;SDS011;520;50.932;6.962;2024-03-22T15:54:42;12.57;;;9.83;;
1062;SDS011;520;50.932;6.962;2024-03-22T15:57:28;13.70;;;8.73;;
1062;SDS011;520;50.932;6.962;2024-03-22T16:00:07;13.80;;;10.60;;
1062;SDS011;520;50.932;6.962;2024-03-22T16:02:46;14.97;;;10.20;;
1062;SDS011;520;50.932;6.962;2024-03-22T16:05:20;17.07;;;11.77;;
1062;SDS011;520;50.932;6.962;2024-03-22T16:07:50;16.00;;;9.87;;
1062;SDS011;520;50.932;6.962;2024-03-22T16:10:20;13.27;;;10.93;;
1062;SDS011;520;50.932;6.962;2024-03-22T16:13:01;14.73;;;10.10;;
1062;SDS011;520;50.932;6.962;2024-03-22T16:15:31;13.30;;;8.93;;
1062;SDS011;520;50.932;6.962;2024-03-22T16:18:07;12.87;;;10.40;;
1062;SDS011;520;50.932;6.962;2024-03-22T16:20:40;11.03;;;9.40;;
1062;SDS011;520;50.932;6.962;2024-03-22T16:23:06;15.93;;;10.00;;
1062;SDS011;520;50.932;6.962;2024-03-22T16:25:36;15.33;;;9.93;;
1062;SDS011;520;50.932;6.962;2024-03-22T16:28:12;11.80;;;9.37;;
1062;SDS011;520;50.932;6.962;2024-03-22T16:30:46;12.20;;;9.77;;
1062;SDS011;520;50.932;6.962;2024-03-22T16:33:31;16.40;;;10.50;;
1062;SDS011;520;50.932;6.962;2024-03-22T16:36:05;19.00;;;12.90;;
1062;SDS011;520;50.932;6.962;2024-03-22T16:38:40;14.70;;;10.00;;
1062;SDS011;520;50.932;6.962;2024-03-22T16:41:07;12.47;;;9.07;;
1062;SDS011;520;50.932;6.962;2024-03-22T16:43:42;11.40;;;8.43;;
1062;SDS011;520;50.932;6.962;2024-03-22T16:46:20;13.40;;;9.80;;
1062;SDS011;520;50.932;6.962;2024-03-22T16:48:49;15.60;;;10.97;;
1062;SDS011;520;50.932;6.962;2024-03-22T16:51:27;13.40;;;10.27;;
1062;SDS011;520;50.932;6.962;2024-03-22T16:53:58;16.67;;;10.93;;
1062;SDS011;520;50.932;6.962;2024-03-22T16:56:53;17.13;;;11.50;;
1062;SDS011;520;50.932;6.962;2024-03-22T16:59:20;12.70;;;9.43;;
1062;SDS011;520;50.932;6.962;2024-03-22T17:01:49;14.03;;;10.07;;
1062;SDS011;520;50.932;6.962;2024-03-22T17:04:24;13.17;;;10.37;;
1062;SDS011;520;50.932;6.962;2024-03-22T17:06:52;17.03;;;11.70;;
1062;SDS011;520;50.932;6.962;2024-03-22T17:09:25;13.03;;;10.30;;
1062;SDS011;520;50.932;6.962;2024-03-22T17:12:02;16.13;;;10.93;;
1062;SDS011;520;50.932;6.962;2024-03-22T17:14:33;13.80;;;11.57;;
1062;SDS011;520;50.932;6.962;2024-03-22T17:17:16;14.13;;;11.20;;
1062;SDS011;520;50.932;6.962;2024-03-22T17:22:43;15.13;;;11.90;;
1062;SDS011;520;50.932;6.962;2024-03-22T17:25:19;16.17;;;12.60;;
1062;SDS011;520;50.932;6.962;2024-03-22T17:27:48;15.00;;;12.63;;
1062;SDS011;520;50.932;6.962;2024-03-22T17:30:20;20.73;;;14.37;;
1062;SDS011;520;50.932;6.962;2024-03-22T17:32:52;16.23;;;13.00;;
1062;SDS011;520;50.932;6.962;2024-03-22T17:35:18;16.03;;;13.20;;
1062;SDS011;520;50.932;6.962;2024-03-22T17:38:04;14.80;;;11.80;;
1062;SDS011;520;50.932;6.962;2024-03-22T17:40:40;13.50;;;10.37;;
1062;SDS011;520;50.932;6.962;2024-03-22T17:43:07;15.57;;;11.70;;
1062;SDS011;520;50.932;6.962;2024-03-22T17:46:03;14.63;;;11.87;;
1062;SDS011;520;50.932;6.962;2024-03-22T17:54:57;14.90;;;11.87;;